createdAt,value
2024-05-09T00:01:49.403Z,14.09
2024-05-09T00:06:51.263Z,13.79
2024-05-09T00:11:53.262Z,13.59
2024-05-09T00:16:55.209Z,13.62
2024-05-09T00:21:57.054Z,13.67
2024-05-09T00:26:58.861Z,13.70
2024-05-09T00:32:00.846Z,13.59
2024-05-09T00:37:02.830Z,13.36
2024-05-09T00:42:04.939Z,13.15
2024-05-09T00:47:07.861Z,12.99
2024-05-09T00:52:10.494Z,12.98
2024-05-09T00:57:13.989Z,13.06
2024-05-09T01:02:16.308Z,13.21
2024-05-09T01:07:18.168Z,13.10
2024-05-09T01:12:20.169Z,13.10
2024-05-09T01:17:22.257Z,13.19
2024-05-09T01:22:27.380Z,13.01
2024-05-09T01:27:30.828Z,12.70
2024-05-09T01:32:32.761Z,12.55
2024-05-09T01:37:34.612Z,12.37
2024-05-09T01:42:36.669Z,12.31
2024-05-09T01:47:38.632Z,12.21
2024-05-09T01:52:40.654Z,12.21
2024-05-09T01:57:42.495Z,12.24
2024-05-09T02:02:45.766Z,11.96
2024-05-09T02:07:47.739Z,11.69
2024-05-09T02:12:49.599Z,11.60
2024-05-09T02:17:51.915Z,11.56
2024-05-09T02:22:54.087Z,11.48
2024-05-09T02:27:55.913Z,11.33
2024-05-09T02:32:57.893Z,11.24
2024-05-09T02:38:00.093Z,11.11
2024-05-09T02:43:01.990Z,11.01
2024-05-09T02:48:04.255Z,10.93
2024-05-09T02:53:10.906Z,10.97
2024-05-09T02:58:12.804Z,11.20
2024-05-09T03:03:15.760Z,11.19
2024-05-09T03:08:18.129Z,10.89
2024-05-09T03:13:20.105Z,10.70
2024-05-09T03:18:22.097Z,10.73
2024-05-09T03:23:24.041Z,10.72
2024-05-09T03:28:25.866Z,10.65
2024-05-09T03:33:27.856Z,10.59
2024-05-09T03:38:30.196Z,10.52
2024-05-09T03:43:32.007Z,10.40
2024-05-09T03:48:36.647Z,10.53
2024-05-09T03:53:38.579Z,10.62
2024-05-09T03:58:40.524Z,10.84
2024-05-09T04:03:42.489Z,10.88
2024-05-09T04:08:44.442Z,10.98
2024-05-09T04:13:46.381Z,10.99
2024-05-09T04:18:48.361Z,10.96
2024-05-09T04:23:52.962Z,10.99
2024-05-09T04:28:54.771Z,11.06
2024-05-09T04:33:56.978Z,11.16
2024-05-09T04:38:59.246Z,11.36
2024-05-09T04:44:01.265Z,11.46
2024-05-09T04:49:03.396Z,11.49
2024-05-09T04:54:05.573Z,11.57
2024-05-09T04:59:08.839Z,11.74
2024-05-09T05:04:11.134Z,11.94
2024-05-09T05:09:13.373Z,12.17
2024-05-09T05:14:15.503Z,12.36
2024-05-09T05:19:17.876Z,12.56
2024-05-09T05:24:19.812Z,12.75
2024-05-09T05:29:22.082Z,12.99
2024-05-09T05:34:24.037Z,13.18
2024-05-09T05:39:26.320Z,13.36
2024-05-09T05:44:28.316Z,13.54
2024-05-09T05:49:30.430Z,13.81
2024-05-09T05:54:32.388Z,14.06
2024-05-09T05:59:34.925Z,14.32
2024-05-09T06:04:37.014Z,14.63
2024-05-09T06:09:39.192Z,14.97
2024-05-09T06:14:41.585Z,15.29
2024-05-09T06:19:43.602Z,15.60
2024-05-09T06:24:46.185Z,15.80
2024-05-09T06:29:48.130Z,15.99
2024-05-09T06:34:50.225Z,16.37
2024-05-09T06:39:52.506Z,16.72
2024-05-09T06:44:54.852Z,17.04
2024-05-09T06:49:57.459Z,17.34
2024-05-09T06:54:59.613Z,17.54
2024-05-09T07:00:01.457Z,17.68
2024-05-09T07:05:03.559Z,18.00
2024-05-09T07:10:07.815Z,18.32
2024-05-09T07:15:12.281Z,18.64
2024-05-09T07:20:22.900Z,18.82
2024-05-09T07:25:30.062Z,19.09
2024-05-09T07:30:34.455Z,19.51
2024-05-09T07:35:37.157Z,19.66
2024-05-09T07:40:40.489Z,19.77
2024-05-09T07:45:51.071Z,19.98
2024-05-09T07:52:39.252Z,20.13
2024-05-09T07:56:19.725Z,20.21
2024-05-09T08:01:26.538Z,20.28
2024-05-09T08:06:29.009Z,20.37
2024-05-09T08:11:32.391Z,20.53
2024-05-09T08:16:34.254Z,20.74
2024-05-09T08:21:36.122Z,20.97
2024-05-09T08:26:38.052Z,21.14
2024-05-09T08:31:40.019Z,21.29
2024-05-09T08:36:42.464Z,21.38
2024-05-09T08:41:49.748Z,21.33
2024-05-09T08:46:52.200Z,21.49
2024-05-09T08:51:54.185Z,21.74
2024-05-09T08:56:58.089Z,21.76
2024-05-09T09:02:00.229Z,21.76
2024-05-09T09:07:03.687Z,21.81
2024-05-09T09:12:07.888Z,21.95
2024-05-09T09:17:16.364Z,21.96
2024-05-09T09:22:19.837Z,22.07
2024-05-09T09:27:22.353Z,22.02
2024-05-09T09:32:29.114Z,22.16
2024-05-09T09:37:31.237Z,22.23
2024-05-09T09:42:35.461Z,22.23
2024-05-09T09:47:40.180Z,22.02
2024-05-09T09:52:42.103Z,21.94
2024-05-09T09:57:48.907Z,21.83
2024-05-09T10:02:50.830Z,22.00
2024-05-09T10:07:53.505Z,22.11
2024-05-09T10:13:00.081Z,22.46
2024-05-09T10:18:06.661Z,22.64
2024-05-09T10:23:24.917Z,22.38
2024-05-09T10:28:28.040Z,22.29
2024-05-09T10:33:46.942Z,22.21
2024-05-09T10:43:51.920Z,22.02
2024-05-09T10:48:54.445Z,22.26
2024-05-09T10:53:59.075Z,22.55
2024-05-09T10:59:04.088Z,22.43
2024-05-09T11:04:06.126Z,22.56
2024-05-09T11:09:08.827Z,22.95
2024-05-09T11:14:13.923Z,23.21
2024-05-09T11:19:16.035Z,23.31
2024-05-09T11:24:19.091Z,23.16
2024-05-09T11:29:20.971Z,22.79
2024-05-09T11:34:22.861Z,22.74
2024-05-09T11:39:25.123Z,22.66
2024-05-09T11:44:27.306Z,22.64
2024-05-09T11:49:29.253Z,22.49
2024-05-09T11:54:31.238Z,22.38
2024-05-09T11:59:33.106Z,22.53
2024-05-09T12:04:35.066Z,22.73
2024-05-09T12:09:37.098Z,22.60
2024-05-09T12:14:39.188Z,22.52
2024-05-09T12:19:41.132Z,22.43
2024-05-09T12:24:42.980Z,22.58
2024-05-09T12:29:44.916Z,22.80
2024-05-09T12:34:46.807Z,22.79
2024-05-09T12:39:48.687Z,22.93
2024-05-09T12:44:50.527Z,23.18
2024-05-09T12:49:52.597Z,23.16
2024-05-09T12:54:54.915Z,23.22
2024-05-09T12:59:56.796Z,23.18
2024-05-09T13:04:58.795Z,23.45
2024-05-09T13:10:00.848Z,23.61
2024-05-09T13:15:02.721Z,23.61
2024-05-09T13:20:07.049Z,23.32
2024-05-09T13:25:12.860Z,23.49
2024-05-09T13:30:21.874Z,23.15
2024-05-09T13:35:32.356Z,22.99
2024-05-09T13:40:36.182Z,23.08
2024-05-09T13:45:38.617Z,23.15
2024-05-09T13:50:40.536Z,23.20
2024-05-09T13:55:42.410Z,23.42
2024-05-09T14:00:48.774Z,23.55
2024-05-09T14:05:52.169Z,23.59
2024-05-09T14:10:54.554Z,23.56
2024-05-09T14:15:56.715Z,23.62
2024-05-09T14:20:58.678Z,23.32
2024-05-09T14:26:00.496Z,23.32
2024-05-09T14:31:02.405Z,23.39
2024-05-09T14:36:04.495Z,23.38
2024-05-09T14:41:07.808Z,23.43
2024-05-09T14:46:10.244Z,23.34
2024-05-09T14:51:12.187Z,23.33
2024-05-09T14:56:14.980Z,23.33
2024-05-09T15:01:17.044Z,23.30
2024-05-09T15:06:19.426Z,23.13
2024-05-09T15:11:21.428Z,23.09
2024-05-09T15:16:24.052Z,23.08
2024-05-09T15:21:26.006Z,23.04
2024-05-09T15:26:28.422Z,22.99
2024-05-09T15:31:30.498Z,22.86
2024-05-09T15:36:32.977Z,22.87
2024-05-09T15:41:34.828Z,22.88
2024-05-09T15:46:37.741Z,22.84
2024-05-09T15:51:40.250Z,22.75
2024-05-09T15:56:47.225Z,22.72
2024-05-09T16:01:49.300Z,22.68
2024-05-09T16:06:51.807Z,22.68
2024-05-09T16:11:53.843Z,22.61
2024-05-09T16:16:56.503Z,22.53
2024-05-09T16:22:00.638Z,22.46
2024-05-09T16:27:03.302Z,22.41
2024-05-09T16:32:06.150Z,22.38
2024-05-09T16:37:10.703Z,22.40
2024-05-09T16:42:12.590Z,22.44
2024-05-09T16:47:18.119Z,22.42
2024-05-09T16:52:23.496Z,22.28
2024-05-09T16:57:25.950Z,22.25
2024-05-09T17:02:28.098Z,22.14
2024-05-09T17:07:30.602Z,22.11
2024-05-09T17:12:32.680Z,22.04
2024-05-09T17:17:35.149Z,21.98
2024-05-09T17:22:37.042Z,21.88
2024-05-09T17:27:39.172Z,21.66
2024-05-09T17:32:41.402Z,21.50
2024-05-09T17:37:43.414Z,21.53
2024-05-09T17:42:45.898Z,21.59
2024-05-09T17:47:48.052Z,21.62
2024-05-09T17:52:52.995Z,21.59
2024-05-09T17:57:55.255Z,21.48
2024-05-09T18:02:57.142Z,21.33
2024-05-09T18:07:59.616Z,21.09
2024-05-09T18:13:01.602Z,21.05
2024-05-09T18:18:04.433Z,21.06
2024-05-09T18:23:07.168Z,21.07
2024-05-09T18:28:10.816Z,21.00
2024-05-09T18:33:13.978Z,20.88
2024-05-09T18:38:18.915Z,20.69
2024-05-09T18:43:28.710Z,20.36
2024-05-09T18:48:37.120Z,20.18
2024-05-09T18:53:39.866Z,20.20
2024-05-09T18:58:43.707Z,20.16
2024-05-09T19:03:48.501Z,20.10
2024-05-09T19:08:53.710Z,19.99
2024-05-09T19:13:56.691Z,19.86
2024-05-09T19:19:00.782Z,19.71
2024-05-09T19:24:03.535Z,19.58
2024-05-09T19:29:06.957Z,19.43
2024-05-09T19:34:09.530Z,19.32
2024-05-09T19:39:12.170Z,19.15
2024-05-09T19:44:14.361Z,19.02
2024-05-09T19:49:16.900Z,18.95
2024-05-09T19:54:18.947Z,18.84
2024-05-09T19:59:21.345Z,18.78
2024-05-09T20:04:23.575Z,18.71
2024-05-09T20:09:26.174Z,18.63
2024-05-09T20:14:28.185Z,18.50
2024-05-09T20:19:30.992Z,18.44
2024-05-09T20:24:33.637Z,18.38
2024-05-09T20:29:35.558Z,18.25
2024-05-09T20:34:37.770Z,18.11
2024-05-09T20:39:40.259Z,18.07
2024-05-09T20:44:42.678Z,18.02
2024-05-09T20:49:46.434Z,18.15
2024-05-09T20:54:48.533Z,18.12
2024-05-09T20:59:50.402Z,18.05
2024-05-09T21:04:52.462Z,17.91
2024-05-09T21:09:57.342Z,17.78
2024-05-09T21:14:59.333Z,17.63
2024-05-09T21:20:01.193Z,17.49
2024-05-09T21:25:03.075Z,17.48
2024-05-09T21:30:07.776Z,17.51
2024-05-09T21:35:11.761Z,17.39
2024-05-09T21:40:17.170Z,17.28
2024-05-09T21:45:26.120Z,17.18
2024-05-09T21:50:35.816Z,17.09
2024-05-09T21:55:42.615Z,16.98
2024-05-09T22:00:46.492Z,16.87
2024-05-09T22:05:48.611Z,16.82
2024-05-09T22:15:53.016Z,16.59
2024-05-09T22:20:55.376Z,16.29
2024-05-09T22:25:57.229Z,16.23
2024-05-09T22:30:59.087Z,16.08
2024-05-09T22:36:00.932Z,15.81
2024-05-09T22:41:06.943Z,15.69
2024-05-09T22:46:08.936Z,15.39
2024-05-09T22:51:12.364Z,15.23
2024-05-09T22:56:15.031Z,15.10
2024-05-09T23:01:16.945Z,15.04
2024-05-09T23:06:19.316Z,14.85
2024-05-09T23:11:21.174Z,14.68
2024-05-09T23:16:23.200Z,14.55
2024-05-09T23:21:25.136Z,14.54
2024-05-09T23:26:26.983Z,14.52
2024-05-09T23:31:28.964Z,14.31
2024-05-09T23:36:31.228Z,14.23
2024-05-09T23:41:33.123Z,14.11
2024-05-09T23:46:35.397Z,14.07
2024-05-09T23:51:37.591Z,14.00
2024-05-09T23:56:39.459Z,14.04
